Time;durP1;ratioP1;P1;durP2;ratioP2;P2;SDS_P1;SDS_P2;PMS_P1;PMS_P2;Temp;Humidity;BMP_temperature;BMP_pressure;BME280_temperature;BME280_humidity;BME280_pressure;Samples;Min_cycle;Max_cycle;Signal;HPM_P1;HPM_P2
2022/06/25 00:01:18;;;;;;;5.90;5.40;;;26.00;49.50;;;24.41;49.37;100559.34;12242547;19;20011;-80
2022/06/25 00:05:29;;;;;;;6.78;6.07;;;25.90;49.50;;;24.17;49.10;100528.31;12243759;19;20017;-80
2022/06/25 00:09:31;;;;;;;6.03;5.43;;;25.90;49.60;;;24.17;49.17;100532.81;12244397;19;20050;-80
2022/06/25 00:13:34;;;;;;;6.95;5.38;;;25.80;49.70;;;24.18;49.49;100539.81;12240012;19;20031;-80
2022/06/25 00:17:36;;;;;;;6.10;5.47;;;25.80;49.70;;;24.13;49.75;100526.19;12243493;19;20015;-80
2022/06/25 00:21:38;;;;;;;8.25;5.80;;;25.70;49.90;;;24.21;49.45;100526.13;12239689;19;20038;-80
2022/06/25 00:25:39;;;;;;;5.53;5.07;;;25.80;50.00;;;24.23;49.79;100513.44;12242796;19;20084;-80
2022/06/25 00:29:41;;;;;;;6.13;5.07;;;25.70;50.20;;;23.85;49.83;100460.84;12239698;19;20014;-80
2022/06/25 00:33:43;;;;;;;6.80;4.88;;;25.70;50.30;;;24.04;49.91;100480.06;12237992;19;20035;-80
2022/06/25 00:37:45;;;;;;;8.18;5.47;;;25.80;50.60;;;24.21;49.85;100513.59;12242067;19;20408;-80
2022/06/25 00:41:47;;;;;;;6.60;6.00;;;25.70;50.60;;;24.04;50.27;100491.56;12241558;19;20025;-80
2022/06/25 00:45:49;;;;;;;6.07;5.38;;;25.70;50.50;;;24.03;50.33;100507.72;12241971;19;20054;-80
2022/06/25 00:49:51;;;;;;;5.50;5.03;;;25.70;50.50;;;24.03;50.44;100507.72;12239161;19;20014;-79
2022/06/25 00:53:58;;;;;;;6.75;5.28;;;25.80;50.50;;;24.03;50.78;100491.72;12239287;19;20086;-80
2022/06/25 00:58:01;;;;;;;6.40;5.60;;;25.80;50.70;;;24.16;50.69;100515.97;12238967;19;20449;-80
2022/06/25 01:02:04;;;;;;;6.38;5.35;;;25.70;50.60;;;24.08;50.47;100502.69;12241518;19;20356;-80
2022/06/25 01:06:06;;;;;;;7.70;4.90;;;25.70;50.30;;;24.15;50.67;100500.16;12240481;19;20019;-80
2022/06/25 01:10:09;;;;;;;5.07;4.68;;;25.70;50.60;;;23.90;50.83;100465.66;12236365;19;20007;-80
2022/06/25 01:14:12;;;;;;;5.05;4.40;;;25.80;50.70;;;24.06;50.40;100494.03;12240585;19;20017;-80
2022/06/25 01:18:13;;;;;;;6.13;5.53;;;25.80;50.60;;;24.09;50.64;100501.72;12236728;19;20021;-80
2022/06/25 01:22:15;;;;;;;6.65;5.40;;;25.70;50.40;;;24.07;50.56;100511.72;12240829;19;20487;-80
2022/06/25 01:26:17;;;;;;;6.40;5.90;;;25.70;50.60;;;23.49;50.68;100425.06;12237353;19;20014;-80
2022/06/25 01:30:19;;;;;;;5.53;4.97;;;25.60;50.50;;;23.94;50.71;100506.13;12238037;19;20018;-81
2022/06/25 01:34:21;;;;;;;5.65;5.05;;;25.60;50.40;;;23.95;51.09;100500.66;12238110;19;20851;-80
2022/06/25 01:38:23;;;;;;;5.68;5.18;;;25.60;50.60;;;23.81;51.00;100464.88;12240691;19;20366;-80
2022/06/25 01:46:46;;;;;;;6.10;5.55;;;25.50;50.80;;;23.95;50.83;100479.31;12235911;19;20022;-80
2022/06/25 01:50:48;;;;;;;5.40;4.93;;;25.70;51.10;;;24.02;51.03;100482.06;12233666;19;20273;-80
2022/06/25 01:54:50;;;;;;;6.00;5.43;;;25.50;51.20;;;24.05;51.25;100489.72;12232769;19;20372;-80
2022/06/25 01:58:52;;;;;;;5.97;5.47;;;25.60;51.10;;;24.01;50.88;100483.09;12236778;19;20683;-80
2022/06/25 02:02:54;;;;;;;6.15;5.57;;;25.60;50.70;;;23.93;50.99;100489.31;12236963;19;20086;-80
2022/06/25 02:06:56;;;;;;;5.97;5.38;;;25.50;50.60;;;23.90;51.22;100479.00;12247712;19;20539;-80
2022/06/25 02:10:59;;;;;;;7.00;5.60;;;25.50;50.60;;;23.85;51.22;100476.03;12244139;19;20018;-80
2022/06/25 02:15:04;;;;;;;8.68;6.40;;;25.60;50.80;;;23.64;51.45;100448.13;12250164;19;20011;-80
2022/06/25 02:19:06;;;;;;;7.05;6.35;;;25.50;50.80;;;23.73;51.32;100469.44;12241510;19;20499;-80
2022/06/25 02:23:10;;;;;;;6.78;6.10;;;25.40;50.60;;;23.52;51.57;100454.88;12249562;19;20109;-80
2022/06/25 02:27:11;;;;;;;6.60;5.90;;;25.40;50.50;;;23.49;51.33;100486.38;12246159;19;20486;-80
2022/06/25 02:31:14;;;;;;;7.03;6.32;;;25.30;50.30;;;23.51;51.50;100495.03;12246016;19;20456;-80
2022/06/25 02:35:16;;;;;;;6.90;6.20;;;25.20;50.40;;;23.40;51.80;100512.25;12246837;19;20010;-80
2022/06/25 02:39:18;;;;;;;7.22;6.53;;;25.10;50.50;;;23.34;51.57;100515.59;12247229;19;20014;-80
2022/06/25 02:43:20;;;;;;;7.22;6.57;;;25.10;50.50;;;23.32;51.98;100526.44;12249235;19;20479;-80
2022/06/25 02:47:31;;;;;;;8.70;7.45;;;25.00;50.90;;;23.25;51.81;100500.63;12246135;19;20512;-80
2022/06/25 02:51:43;;;;;;;6.78;6.15;;;25.00;51.00;;;23.30;51.99;100520.44;12243831;19;20486;-80
2022/06/25 03:00:08;;;;;;;7.88;7.13;;;25.00;51.20;;;23.33;51.81;100556.56;12247407;19;20018;-80
2022/06/25 03:04:09;;;;;;;7.78;6.97;;;24.90;51.10;;;23.28;51.88;100554.44;12244979;19;20037;-80
2022/06/25 03:08:12;;;;;;;8.20;7.40;;;24.80;51.50;;;23.27;52.14;100559.94;12245333;19;20024;-80
2022/06/25 03:12:15;;;;;;;8.48;7.60;;;24.80;51.40;;;23.24;52.08;100565.59;12242052;19;20015;-80
2022/06/25 03:16:22;;;;;;;8.07;7.38;;;24.90;51.70;;;23.26;52.40;100560.94;12244756;19;20032;-80
2022/06/25 03:20:25;;;;;;;8.50;7.63;;;24.80;51.70;;;23.31;52.20;100579.91;12243098;19;20316;-80
2022/06/25 03:24:30;;;;;;;7.95;7.30;;;24.80;52.00;;;23.25;52.33;100568.13;12247329;19;20011;-80
2022/06/25 03:28:32;;;;;;;8.52;7.80;;;24.80;52.10;;;23.40;52.62;100601.03;12242834;19;20037;-80
2022/06/25 03:32:35;;;;;;;8.45;7.60;;;24.80;52.00;;;23.27;52.83;100584.72;12244268;19;20014;-80
2022/06/25 03:37:01;;;;;;;8.98;8.15;;;24.90;52.20;;;23.31;52.32;100591.41;12243951;19;20015;-80
2022/06/25 03:45:26;;;;;;;9.35;8.45;;;24.90;52.00;;;23.34;52.84;100600.88;12242590;19;20341;-80
2022/06/25 03:49:28;;;;;;;9.45;8.55;;;24.90;52.00;;;23.47;52.93;100621.69;12242365;19;20022;-80
2022/06/25 03:53:35;;;;;;;9.85;8.88;;;25.00;52.20;;;23.36;52.75;100604.22;12241342;19;20010;-80
2022/06/25 03:57:36;;;;;;;10.07;8.85;;;25.00;52.30;;;23.45;52.76;100611.19;12241384;19;20515;-80
2022/06/25 04:01:59;;;;;;;9.57;8.68;;;25.10;52.50;;;23.47;52.86;100627.84;12241758;19;20029;-80
2022/06/25 04:06:10;;;;;;;9.82;8.82;;;25.10;52.50;;;23.54;53.10;100633.31;12241911;19;20025;-80
2022/06/25 04:10:20;;;;;;;9.25;8.13;;;25.30;52.70;;;23.40;53.16;100616.19;12237441;19;20011;-80
2022/06/25 04:14:22;;;;;;;10.13;8.90;;;25.10;52.50;;;23.48;53.18;100639.31;12242829;19;20378;-80
2022/06/25 04:18:24;;;;;;;9.70;8.23;;;25.20;52.70;;;23.48;53.28;100652.66;12240795;19;20046;-80
2022/06/25 04:22:27;;;;;;;9.70;8.68;;;25.10;52.70;;;23.49;53.64;100643.66;12243194;19;20027;-80
2022/06/25 04:26:28;;;;;;;8.82;7.93;;;25.10;52.90;;;23.41;53.55;100641.81;12240950;19;20010;-80
2022/06/25 04:30:32;;;;;;;9.13;8.23;;;25.10;53.10;;;23.50;53.59;100648.81;12238424;19;20025;-80
2022/06/25 04:34:34;;;;;;;9.98;8.98;;;25.20;53.20;;;23.38;53.70;100632.34;12240489;19;20022;-80
2022/06/25 04:38:35;;;;;;;8.88;7.97;;;25.10;53.20;;;23.28;53.90;100623.72;12240581;19;20022;-80
2022/06/25 04:42:39;;;;;;;9.38;8.48;;;25.10;53.30;;;23.24;53.90;100617.06;12240081;19;20017;-80
2022/06/25 04:46:41;;;;;;;9.73;8.70;;;25.10;53.40;;;23.65;54.15;100686.25;12241423;19;20045;-80
2022/06/25 04:50:45;;;;;;;9.23;8.32;;;25.10;53.40;;;23.53;54.17;100675.13;12237688;19;20018;-80
2022/06/25 04:54:47;;;;;;;8.93;7.72;;;25.10;53.40;;;23.66;53.97;100690.59;12238740;19;20475;-80
2022/06/25 04:58:52;;;;;;;8.73;7.93;;;25.20;53.70;;;23.60;53.93;100683.25;12236988;19;20393;-80
2022/06/25 05:03:14;;;;;;;8.00;7.30;;;25.20;53.70;;;23.57;53.94;100687.13;12239817;19;20018;-80
2022/06/25 05:07:35;;;;;;;8.70;7.78;;;25.20;53.60;;;23.66;53.92;100703.09;12238006;19;20506;-81
2022/06/25 05:11:38;;;;;;;8.57;7.78;;;25.20;53.70;;;23.64;54.14;100692.59;12238573;19;20056;-80
2022/06/25 05:15:41;;;;;;;8.70;7.90;;;25.30;53.90;;;23.70;54.39;100707.91;12238419;19;20044;-80
2022/06/25 05:19:43;;;;;;;8.15;7.40;;;25.20;53.80;;;23.74;54.32;100703.13;12235549;19;20097;-81
2022/06/25 05:23:45;;;;;;;8.90;8.10;;;25.20;53.80;;;23.76;54.61;100701.09;12239264;19;20014;-80
2022/06/25 05:27:47;;;;;;;8.43;7.63;;;25.30;53.90;;;23.75;54.25;100704.75;12237353;19;20018;-80
2022/06/25 05:31:49;;;;;;;9.77;8.25;;;25.40;53.80;;;23.59;54.21;100666.44;12237085;19;20011;-82
2022/06/25 05:35:51;;;;;;;9.20;8.32;;;25.50;53.80;;;23.81;54.55;100699.56;12236951;19;20046;-79
2022/06/25 05:39:53;;;;;;;9.10;7.78;;;25.40;53.70;;;23.70;54.30;100688.41;12240511;19;20369;-80
2022/06/25 05:43:54;;;;;;;8.70;7.90;;;25.40;53.90;;;23.84;54.64;100709.91;12249137;19;20354;-81
2022/06/25 05:47:56;;;;;;;10.43;9.43;;;25.40;54.10;;;23.62;54.45;100682.09;12249895;19;20579;-80
2022/06/25 05:51:58;;;;;;;9.50;8.43;;;25.50;54.10;;;23.85;54.82;100722.22;12246518;19;20011;-80
2022/06/25 05:56:00;;;;;;;9.50;8.40;;;25.50;54.20;;;23.91;54.64;100722.56;12249736;19;20014;-80
2022/06/25 06:00:03;;;;;;;9.98;7.57;;;25.50;54.20;;;23.81;55.17;100706.75;12246917;19;20078;-85
2022/06/25 06:04:13;;;;;;;8.70;7.88;;;25.50;54.20;;;23.95;55.06;100732.72;12251624;19;20027;-94
2022/06/25 06:08:15;;;;;;;7.80;7.00;;;25.50;54.20;;;23.93;54.90;100740.06;12251801;19;20343;-91
2022/06/25 06:12:17;;;;;;;8.70;7.63;;;25.50;54.00;;;23.84;55.01;100717.91;12248312;19;20474;-88
2022/06/25 06:16:19;;;;;;;8.55;7.65;;;25.80;54.60;;;23.85;55.25;100718.75;12250271;19;20011;-89
2022/06/25 06:20:20;;;;;;;8.75;7.68;;;25.60;54.60;;;23.93;55.45;100733.91;12246070;19;20018;-88
2022/06/25 06:24:22;;;;;;;9.85;7.50;;;25.80;54.90;;;24.05;55.19;100740.50;12253077;19;20014;-93
2022/06/25 06:28:24;;;;;;;8.35;7.28;;;25.60;54.70;;;24.03;55.43;100740.69;12248149;19;20042;-89
2022/06/25 06:32:26;;;;;;;8.00;7.20;;;25.70;54.70;;;24.08;55.57;100750.81;12248328;19;20007;-91
2022/06/25 06:36:28;;;;;;;9.50;8.07;;;25.70;54.60;;;24.10;55.51;100750.66;12248068;19;20078;-88
2022/06/25 06:40:30;;;;;;;7.53;6.57;;;25.70;54.90;;;24.10;55.24;100740.00;12247040;19;20082;-88
2022/06/25 06:44:32;;;;;;;7.32;6.70;;;25.70;54.70;;;24.12;55.30;100738.00;12247578;19;20007;-89
2022/06/25 06:48:33;;;;;;;8.45;7.68;;;25.80;54.90;;;24.09;55.64;100739.16;12249180;19;20007;-90
2022/06/25 06:52:35;;;;;;;8.48;7.68;;;26.10;55.10;;;24.24;55.90;100763.28;12243737;19;20021;-88
2022/06/25 06:56:37;;;;;;;7.88;7.18;;;25.90;55.20;;;24.36;55.63;100769.06;12247646;19;20326;-82
2022/06/25 07:00:38;;;;;;;8.73;7.32;;;25.90;55.10;;;23.94;55.38;100687.53;12242565;19;20018;-85
2022/06/25 07:04:40;;;;;;;7.90;7.13;;;25.90;55.00;;;24.38;55.90;100745.69;12249089;19;20007;-86
2022/06/25 07:08:42;;;;;;;7.53;6.82;;;26.20;55.10;;;24.36;55.78;100721.00;12244055;19;20493;-85
2022/06/25 07:12:43;;;;;;;7.55;6.72;;;26.00;55.00;;;24.67;55.73;100737.06;12244730;19;20481;-86
2022/06/25 07:16:45;;;;;;;6.80;6.20;;;26.10;55.30;;;24.81;55.72;100733.63;12226698;19;20014;-84
2022/06/25 07:20:47;;;;;;;6.47;5.97;;;26.20;54.70;;;25.07;55.51;100743.97;12237180;19;20010;-85
2022/06/25 07:24:49;;;;;;;6.45;5.85;;;26.40;54.90;;;25.17;55.56;100728.53;12243417;19;20017;-85
2022/06/25 07:28:54;;;;;;;5.10;4.60;;;26.60;54.80;;;25.44;55.34;100747.69;12241338;19;20042;-85
2022/06/25 07:32:56;;;;;;;6.13;5.53;;;26.70;54.70;;;25.62;55.39;100744.66;12239060;19;20014;-85
2022/06/25 07:36:57;;;;;;;6.70;5.00;;;26.90;54.60;;;25.61;54.89;100743.00;12243323;19;20077;-84
2022/06/25 07:40:59;;;;;;;7.40;6.68;;;27.00;54.10;;;25.49;55.05;100742.63;12239324;19;20011;-85
2022/06/25 07:45:01;;;;;;;7.95;7.03;;;27.10;53.90;;;25.46;55.22;100752.84;12243628;19;20042;-84
2022/06/25 07:49:03;;;;;;;6.40;5.90;;;27.10;53.60;;;25.50;54.93;100748.81;12239494;19;20038;-84
2022/06/25 07:53:05;;;;;;;6.50;5.97;;;27.10;53.50;;;25.49;55.04;100737.28;12240425;19;20021;-84
2022/06/25 07:57:07;;;;;;;6.25;5.75;;;27.10;53.30;;;25.40;54.72;100716.97;12243712;19;20073;-85
2022/06/25 08:01:08;;;;;;;6.43;5.78;;;27.10;53.20;;;25.68;54.57;100767.16;12239115;19;20023;-84
2022/06/25 08:05:10;;;;;;;6.25;5.68;;;27.40;53.80;;;25.56;54.84;100727.50;12242057;19;20471;-85
2022/06/25 08:09:15;;;;;;;6.15;5.03;;;27.20;53.60;;;25.63;54.71;100732.97;12238460;19;20021;-85
2022/06/25 08:13:17;;;;;;;6.72;6.05;;;27.30;53.90;;;25.67;54.73;100733.41;12240855;19;20011;-85
2022/06/25 08:17:21;;;;;;;7.25;5.82;;;27.30;53.40;;;25.76;54.74;100738.50;12238975;19;20010;-84
2022/06/25 08:21:23;;;;;;;6.22;5.22;;;27.40;53.30;;;25.86;54.56;100756.97;12240827;19;20015;-85
2022/06/25 08:25:25;;;;;;;6.15;5.55;;;27.40;53.20;;;25.82;54.45;100735.09;12238538;19;20011;-86
2022/06/25 08:29:26;;;;;;;6.05;5.00;;;27.50;53.80;;;26.06;54.82;100759.94;12239091;19;20081;-86
2022/06/25 08:33:28;;;;;;;7.00;5.28;;;27.50;54.30;;;26.21;54.42;100757.25;12237981;19;20026;-85
2022/06/25 08:37:30;;;;;;;6.20;5.70;;;27.70;53.90;;;26.33;54.74;100761.13;12240779;19;20042;-85
2022/06/25 08:41:31;;;;;;;6.20;5.65;;;27.80;54.10;;;26.50;54.38;100756.38;12238059;19;20011;-85
2022/06/25 08:45:33;;;;;;;6.10;5.38;;;27.90;53.30;;;26.62;54.29;100762.09;12239717;19;20022;-86
2022/06/25 08:49:36;;;;;;;5.78;5.28;;;28.00;53.50;;;26.75;53.73;100756.88;12239360;19;20010;-85
2022/06/25 08:53:38;;;;;;;5.75;5.25;;;28.20;52.80;;;26.63;53.62;100729.78;12238001;19;20010;-85
2022/06/25 08:57:40;;;;;;;7.30;5.65;;;28.30;52.90;;;26.66;53.46;100734.75;12238451;19;20022;-84
2022/06/25 09:01:41;;;;;;;5.60;5.10;;;28.40;52.10;;;26.91;53.74;100794.16;12234475;19;20010;-86
2022/06/25 09:05:44;;;;;;;5.50;5.00;;;28.50;52.40;;;26.83;53.54;100783.56;12242653;19;20021;-84
2022/06/25 09:09:50;;;;;;;5.47;5.07;;;28.50;51.90;;;26.82;53.50;100770.38;12235295;19;20032;-86
2022/06/25 09:13:52;;;;;;;5.63;5.03;;;28.50;52.10;;;26.89;53.41;100771.25;12234905;19;20018;-86
2022/06/25 09:17:54;;;;;;;5.82;5.32;;;28.50;52.20;;;26.96;53.44;100774.81;12235831;19;20026;-86
2022/06/25 09:21:57;;;;;;;5.70;5.20;;;28.50;51.80;;;26.93;53.45;100759.97;12237239;19;20022;-87
2022/06/25 09:26:11;;;;;;;5.72;4.80;;;28.60;51.60;;;27.11;53.27;100780.13;12237449;19;20487;-86
2022/06/25 09:30:16;;;;;;;5.03;4.63;;;28.60;51.60;;;27.10;52.99;100773.94;12235033;19;20019;-87
2022/06/25 09:34:33;;;;;;;4.82;4.47;;;28.70;51.10;;;27.23;52.61;100778.63;12235040;19;20035;-87
2022/06/25 09:38:49;;;;;;;5.25;4.60;;;28.70;51.00;;;27.29;52.93;100767.13;12235859;19;20366;-85
2022/06/25 09:42:50;;;;;;;4.60;4.20;;;28.80;51.20;;;27.57;52.79;100782.38;12236911;19;20019;-86
2022/06/25 09:46:57;;;;;;;4.55;4.15;;;29.10;51.00;;;27.57;52.64;100764.47;12234656;19;20011;-86
2022/06/25 09:51:19;;;;;;;5.30;4.82;;;29.00;50.80;;;27.88;51.99;100786.56;12235983;19;20333;-88
2022/06/25 09:55:32;;;;;;;4.93;4.50;;;29.20;50.50;;;27.97;51.80;100794.25;12237247;19;20018;-88
2022/06/25 09:59:38;;;;;;;5.22;4.50;;;29.30;50.10;;;27.99;51.44;100788.69;12234564;19;20015;-87
2022/06/25 10:03:40;;;;;;;5.38;4.18;;;29.50;49.80;;;27.67;51.57;100718.47;12234342;19;20011;-87
2022/06/25 10:08:01;;;;;;;5.18;4.63;;;29.50;49.80;;;28.08;51.53;100775.94;12237950;19;20034;-88
2022/06/25 10:12:05;;;;;;;5.30;4.80;;;29.60;50.10;;;28.22;50.96;100778.50;12233139;19;20014;-87
2022/06/25 10:16:07;;;;;;;5.03;4.35;;;29.70;49.80;;;28.18;51.13;100771.88;12219250;19;20015;-87
2022/06/25 10:20:10;;;;;;;4.50;4.10;;;29.80;49.90;;;28.37;51.28;100796.31;12232814;19;20061;-87
2022/06/25 10:24:13;;;;;;;4.55;4.22;;;29.80;49.60;;;28.28;51.20;100755.38;12232468;19;20035;-88
2022/06/25 10:28:23;;;;;;;4.90;4.60;;;29.90;49.90;;;28.40;50.52;100752.94;12242935;19;20019;-89
2022/06/25 10:32:27;;;;;;;5.32;4.93;;;30.20;49.30;;;28.73;50.64;100789.88;12242856;19;20377;-89
2022/06/25 10:36:58;;;;;;;4.85;4.45;;;30.10;49.10;;;28.87;50.79;100770.91;12241469;19;20014;-88
2022/06/25 10:45:22;;;;;;;5.22;4.63;;;30.30;48.90;;;29.06;50.57;100782.75;12246415;19;20062;-90
2022/06/25 10:49:30;;;;;;;6.03;4.88;;;30.40;48.70;;;28.87;50.07;100744.00;12247227;19;20426;-87
2022/06/25 10:53:32;;;;;;;7.05;5.63;;;30.40;48.70;;;29.13;49.46;100763.09;12243075;19;20010;-88
2022/06/25 10:57:40;;;;;;;5.45;4.93;;;30.50;47.70;;;29.26;49.68;100779.22;12245402;19;20019;-86
2022/06/25 11:01:57;;;;;;;6.72;5.55;;;30.60;47.60;;;29.29;49.07;100759.97;12238414;19;20022;-84
2022/06/25 11:06:19;;;;;;;6.32;4.65;;;30.70;46.90;;;29.50;48.86;100770.53;12245077;19;20011;-85
2022/06/25 11:10:38;;;;;;;6.28;5.68;;;30.90;47.00;;;29.59;48.57;100760.38;12243474;19;20010;-84
2022/06/25 11:14:40;;;;;;;5.13;4.63;;;30.90;46.90;;;29.66;48.62;100758.53;12245062;19;20628;-86
2022/06/25 11:18:51;;;;;;;5.25;4.80;;;31.20;46.30;;;29.74;48.06;100744.84;12242385;19;20489;-85
2022/06/25 11:22:53;;;;;;;4.32;4.03;;;31.10;45.70;;;29.87;48.25;100760.16;12242210;19;20014;-86
2022/06/25 11:31:22;;;;;;;4.85;4.45;;;31.30;45.60;;;29.99;47.42;100752.25;12239699;19;20014;-86
2022/06/25 11:35:39;;;;;;;4.72;4.32;;;31.50;45.20;;;30.19;47.15;100762.94;12244536;19;20026;-87
2022/06/25 11:39:44;;;;;;;4.60;4.20;;;31.60;45.40;;;30.33;47.68;100775.38;12240555;19;20038;-85
2022/06/25 11:43:45;;;;;;;5.15;4.75;;;31.60;44.90;;;30.42;46.90;100774.06;12245513;19;20038;-83
2022/06/25 11:47:47;;;;;;;4.30;4.00;;;31.70;45.10;;;30.53;46.60;100774.44;12241070;19;20015;-85
2022/06/25 11:51:52;;;;;;;4.78;4.38;;;31.80;44.30;;;30.52;46.09;100764.72;12244028;19;20015;-83
2022/06/25 11:55:59;;;;;;;4.68;4.28;;;31.90;43.60;;;30.52;46.04;100776.31;12242119;19;20010;-83
2022/06/25 12:00:01;;;;;;;5.25;4.72;;;31.90;43.80;;;30.39;46.31;100747.56;12237730;19;20018;-86
2022/06/25 12:04:12;;;;;;;5.22;4.78;;;32.00;43.90;;;30.56;46.33;100774.81;12243158;19;20015;-85
2022/06/25 12:08:14;;;;;;;4.82;4.43;;;32.00;44.10;;;30.57;45.81;100764.88;12239561;19;20464;-86
2022/06/25 12:12:17;;;;;;;5.25;4.75;;;32.00;43.70;;;30.63;45.63;100769.41;12241437;19;20086;-85
2022/06/25 12:16:18;;;;;;;6.63;4.75;;;32.00;43.40;;;30.62;45.73;100771.28;12240977;19;20022;-84
2022/06/25 12:20:20;;;;;;;4.78;4.38;;;32.00;43.40;;;30.64;45.88;100769.19;12240766;19;20025;-85
2022/06/25 12:24:22;;;;;;;5.40;4.93;;;32.10;43.40;;;30.50;45.69;100746.03;12243155;19;20018;-85
2022/06/25 12:28:44;;;;;;;5.07;4.57;;;32.10;43.30;;;30.65;45.42;100765.47;12238046;19;20025;-84
2022/06/25 12:32:47;;;;;;;5.40;4.90;;;32.10;43.40;;;30.68;45.08;100758.81;12240523;19;20018;-85
2022/06/25 12:36:50;;;;;;;5.22;4.72;;;32.10;42.70;;;30.61;45.09;100750.75;12238079;19;20042;-85
2022/06/25 12:40:52;;;;;;;5.00;4.60;;;32.10;43.20;;;30.71;44.87;100760.25;12238626;19;20019;-86
2022/06/25 12:44:54;;;;;;;5.20;4.75;;;32.10;42.80;;;30.70;44.75;100755.88;12237791;19;20014;-85
2022/06/25 12:49:01;;;;;;;4.90;4.47;;;32.10;42.50;;;30.84;44.40;100760.19;12236824;19;20371;-86
2022/06/25 12:53:10;;;;;;;4.88;4.43;;;32.20;42.40;;;30.94;44.23;100760.53;12237137;19;20077;-86
2022/06/25 12:57:26;;;;;;;4.85;4.38;;;32.20;42.40;;;31.08;44.26;100762.09;12242263;19;20511;-85
2022/06/25 13:01:29;;;;;;;4.13;3.83;;;32.30;42.40;;;31.13;43.82;100747.94;12211945;19;20019;-85
2022/06/25 13:05:32;;;;;;;3.80;3.47;;;32.50;41.60;;;31.24;43.78;100765.28;12240429;19;20053;-85
2022/06/25 13:09:34;;;;;;;3.67;3.38;;;32.50;41.30;;;31.22;43.37;100748.50;12238925;19;20022;-85
2022/06/25 13:13:35;;;;;;;4.20;3.90;;;32.50;41.40;;;31.35;43.29;100753.75;12237256;19;20065;-85
2022/06/25 13:17:37;;;;;;;4.10;3.83;;;32.60;41.50;;;31.27;43.25;100721.66;12237347;19;20021;-85
2022/06/25 13:21:39;;;;;;;3.63;3.33;;;32.70;41.10;;;31.19;43.00;100714.69;12236463;19;20033;-85
2022/06/25 13:25:40;;;;;;;3.65;3.45;;;32.70;40.60;;;31.38;42.99;100758.78;12236127;19;20028;-84
2022/06/25 13:29:44;;;;;;;4.13;3.83;;;32.80;40.80;;;31.09;43.00;100709.78;12228480;19;20010;-84
2022/06/25 13:33:46;;;;;;;4.90;3.97;;;32.90;41.00;;;31.15;42.67;100701.84;12234035;19;20015;-85
2022/06/25 13:37:47;;;;;;;3.80;3.50;;;32.60;40.60;;;31.47;42.68;100753.91;12233015;19;20027;-84
2022/06/25 13:41:51;;;;;;;3.95;3.67;;;32.80;41.00;;;31.45;42.65;100735.22;12233955;19;20502;-84
2022/06/25 13:45:53;;;;;;;3.95;3.65;;;32.80;40.50;;;31.64;42.58;100743.34;12238937;19;20018;-85
2022/06/25 13:49:55;;;;;;;4.85;3.95;;;32.90;40.80;;;31.45;42.52;100704.72;12232180;19;20019;-84
2022/06/25 13:53:56;;;;;;;4.00;3.70;;;33.00;40.40;;;31.74;42.32;100741.78;12234778;19;20014;-85
2022/06/25 13:57:57;;;;;;;4.05;3.75;;;33.00;40.40;;;31.78;41.92;100725.13;12235431;19;20015;-84
2022/06/25 14:01:59;;;;;;;4.05;3.75;;;33.10;40.50;;;31.96;41.82;100730.56;12244967;19;20022;-83
2022/06/25 14:06:02;;;;;;;3.97;3.67;;;33.10;40.50;;;31.96;41.54;100717.88;12246831;19;20014;-84
2022/06/25 14:10:04;;;;;;;4.10;3.70;;;33.20;40.40;;;32.09;41.74;100726.88;12243967;19;20021;-84
2022/06/25 14:14:06;;;;;;;3.85;3.50;;;33.30;40.40;;;32.24;41.57;100726.47;12247034;19;20011;-85
2022/06/25 14:18:08;;;;;;;5.07;3.97;;;33.40;40.20;;;32.31;41.62;100728.03;12244512;19;20022;-84
2022/06/25 14:22:10;;;;;;;4.18;3.50;;;33.50;40.00;;;32.11;41.16;100686.97;12248082;19;20620;-84
2022/06/25 14:26:12;;;;;;;4.00;3.60;;;33.60;39.50;;;32.14;41.00;100689.19;12245779;19;20015;-85
2022/06/25 14:30:13;;;;;;;4.15;3.75;;;33.70;39.30;;;32.45;40.41;100728.69;12245315;19;20019;-84
2022/06/25 14:34:15;;;;;;;4.78;4.38;;;33.70;38.90;;;32.43;40.51;100730.78;12242158;19;20017;-85
2022/06/25 14:42:37;;;;;;;3.88;3.60;;;33.70;38.50;;;32.37;40.01;100724.41;12247672;19;22505;-85
2022/06/25 14:46:39;;;;;;;3.90;3.60;;;33.70;38.60;;;32.40;40.38;100723.13;12246181;19;20667;-85
2022/06/25 14:50:40;;;;;;;3.85;3.53;;;33.70;38.60;;;32.37;40.02;100708.19;12241822;19;20348;-87
2022/06/25 14:54:43;;;;;;;3.50;3.22;;;33.90;38.60;;;32.39;39.71;100724.19;12245449;19;20010;-86
2022/06/25 14:58:44;;;;;;;3.90;3.60;;;33.80;38.40;;;32.43;39.89;100719.97;12244065;19;20026;-85
2022/06/25 15:02:47;;;;;;;3.83;3.50;;;33.90;38.90;;;32.59;40.08;100724.78;12240442;19;20766;-84
2022/06/25 15:06:49;;;;;;;3.70;3.45;;;33.80;39.00;;;32.59;40.04;100705.00;12215884;19;20821;-84
2022/06/25 15:10:51;;;;;;;3.95;3.58;;;33.90;38.30;;;32.57;39.38;100689.03;12225878;19;20026;-85
2022/06/25 15:14:52;;;;;;;4.05;3.70;;;34.00;38.40;;;32.71;39.72;100722.09;12231242;19;20022;-84
2022/06/25 15:18:54;;;;;;;4.38;3.50;;;34.00;38.60;;;32.76;39.33;100737.66;12224115;19;20023;-83
2022/06/25 15:22:55;;;;;;;4.15;3.80;;;34.10;37.90;;;32.60;39.44;100726.41;12233959;19;20424;-85
2022/06/25 15:26:57;;;;;;;4.28;3.90;;;34.00;38.10;;;32.56;39.07;100735.22;12226482;19;20019;-84
2022/06/25 15:30:59;;;;;;;4.20;3.88;;;34.00;37.90;;;32.49;39.23;100746.13;12232649;19;20010;-85
2022/06/25 15:35:00;;;;;;;4.32;4.03;;;33.90;38.10;;;32.35;39.58;100755.44;12238182;19;20018;-85
2022/06/25 15:39:03;;;;;;;4.60;4.25;;;33.80;38.00;;;32.26;39.86;100773.84;12233331;19;20014;-85
2022/06/25 15:43:04;;;;;;;4.43;4.03;;;33.70;38.90;;;31.87;40.72;100775.94;12240168;19;20049;-85
2022/06/25 15:47:06;;;;;;;6.95;4.68;;;33.60;40.40;;;31.21;41.52;100798.09;12238304;19;20849;-80
2022/06/25 15:51:08;;;;;;;4.00;3.70;;;33.30;40.80;;;30.20;42.09;100753.84;12237518;19;20018;-81
2022/06/25 15:55:09;;;;;;;2.72;2.45;;;32.80;40.40;;;29.77;42.60;100755.19;12238641;19;20506;-80
2022/06/25 15:59:31;;;;;;;2.67;2.47;;;32.20;40.50;;;29.55;42.50;100751.91;12238293;19;20671;-80
2022/06/25 16:03:33;;;;;;;2.47;2.28;;;31.60;40.80;;;29.28;42.68;100728.75;12238353;19;20045;-81
2022/06/25 16:07:35;;;;;;;2.13;1.92;;;31.30;41.30;;;29.28;43.17;100739.50;12236916;19;20018;-81
2022/06/25 16:11:36;;;;;;;2.05;1.88;;;31.00;41.80;;;29.34;43.15;100757.50;12234474;19;20035;-82
2022/06/25 16:15:39;;;;;;;4.50;1.92;;;30.90;42.60;;;29.24;43.48;100749.84;12235862;19;20109;-80
2022/06/25 16:19:41;;;;;;;2.42;2.22;;;30.80;43.50;;;29.27;43.33;100751.28;12235854;19;20022;-80
2022/06/25 16:23:44;;;;;;;2.03;1.77;;;30.80;43.20;;;28.92;43.63;100700.34;12236391;19;20014;-82
2022/06/25 16:27:46;;;;;;;4.00;2.30;;;30.80;44.10;;;29.16;44.22;100725.00;12238815;19;20014;-83
2022/06/25 16:31:50;;;;;;;2.35;2.17;;;30.80;44.70;;;29.16;44.10;100733.09;12234979;19;20021;-81
2022/06/25 16:35:52;;;;;;;3.17;2.10;;;30.80;44.50;;;29.17;44.33;100734.75;12238023;19;20030;-82
2022/06/25 16:39:54;;;;;;;2.90;2.58;;;30.80;44.90;;;29.39;44.95;100781.94;12236481;19;20401;-82
2022/06/25 16:44:05;;;;;;;4.53;2.95;;;30.80;46.00;;;28.81;45.68;100701.81;12235402;19;20042;-82
2022/06/25 16:48:07;;;;;;;3.28;3.08;;;30.80;46.70;;;28.78;46.12;100709.44;12234652;19;20014;-82
2022/06/25 16:52:09;;;;;;;3.78;3.47;;;30.70;47.20;;;28.59;46.48;100698.47;12237432;19;20023;-82
2022/06/25 16:56:11;;;;;;;5.47;3.55;;;30.90;47.10;;;28.67;46.91;100727.81;12235400;19;20082;-82
2022/06/25 17:00:18;;;;;;;3.85;3.55;;;30.60;47.40;;;28.82;47.00;100751.03;12230160;19;20031;-82
2022/06/25 17:04:21;;;;;;;4.25;2.78;;;30.50;47.50;;;28.89;47.24;100774.22;12237255;19;20018;-81
2022/06/25 17:08:23;;;;;;;3.05;2.75;;;30.50;48.30;;;28.77;47.45;100753.50;12232833;19;20452;-82